메인 페이지
METAR-TAF:

METAR-TAF

공항 :

라슈트, 이란

위도: 37-12N, 경도: 049-38E, 고도: -7m

현재 날씨관측

예보는 28분 전, 13:30시(UTC)에 발표되었습니다.
북북동8kt
온도 27°C
습도 48%
기압 1014 hPa
시정 10km 이상
고도 9000ft 상공 구름 조금

METAR: OIGG 051330Z 02008KT 9999 FEW090 27/15 Q1014

시각: 18:28 (13:58 UTC)


TAF: 누락

4,000개 이상의 공항 관측 자료 및 예보 (METAR 및 TAF 보고).

지도상에서 검색 가능한 기상관측소가 노란 점과 빨간 점으로 표시되어 있습니다.

기상관측소 명을 보려면 표시 위로 마우스를 이동하세요.

날씨 관측과 예보를 보려면 클릭하세요.

지도 변경 : 확대하려면 엑스 표시가 있는 녹색 버튼, 축소하려면 빼기 표시가 있는 녹색 버튼, 다음 페이지의 지도를 보려면 녹색 화살표를 클릭하세요.


METAR-TAF: